Time;durP1;ratioP1;P1;durP2;ratioP2;P2;SDS_P1;SDS_P2;PMS_P1;PMS_P2;Temp;Humidity;BMP_temperature;BMP_pressure;BME280_temperature;BME280_humidity;BME280_pressure;Samples;Min_cycle;Max_cycle;Signal;HPM_P1;HPM_P2
2022/01/29 00:01:35;;;;;;;;;;;1.00;99.90;;;;;;5062620;28;19908;-79
2022/01/29 00:04:01;;;;;;;;;;;1.00;99.90;;;;;;5062437;28;19916;-80
2022/01/29 00:06:26;;;;;;;;;;;0.90;99.90;;;;;;5063157;28;19947;-80
2022/01/29 00:08:55;;;;;;;;;;;1.00;99.90;;;;;;5062332;28;20195;-81
2022/01/29 00:11:26;;;;;;;;;;;0.90;99.90;;;;;;5062176;28;20411;-79
2022/01/29 00:13:52;;;;;;;;;;;1.50;99.90;;;;;;5061450;28;19913;-80
2022/01/29 00:16:17;;;;;;;;;;;0.80;99.90;;;;;;5043817;28;20252;-80
2022/01/29 00:18:43;;;;;;;;;;;0.80;99.90;;;;;;5062461;28;19916;-80
2022/01/29 00:21:09;;;;;;;;;;;0.80;99.90;;;;;;5044588;28;19919;-80
2022/01/29 00:23:35;;;;;;;;;;;0.70;99.90;;;;;;5062445;28;19912;-79
2022/01/29 00:26:00;;;;;;;;;;;0.70;99.90;;;;;;5061894;28;19909;-80
2022/01/29 00:28:27;;;;;;;;;;;0.70;99.90;;;;;;5061560;28;19908;-80
2022/01/29 00:30:53;;;;;;;;;;;0.70;99.90;;;;;;5044108;28;19912;-81
2022/01/29 00:33:18;;;;;;;;;;;0.70;99.90;;;;;;5061886;28;20303;-80
2022/01/29 00:35:44;;;;;;;;;;;0.70;99.90;;;;;;5061931;28;19916;-81
2022/01/29 00:38:10;;;;;;;;;;;0.70;99.90;;;;;;5062615;28;20124;-80
2022/01/29 00:40:38;;;;;;;;;;;0.60;99.90;;;;;;5044021;28;20201;-80
2022/01/29 00:43:05;;;;;;;;;;;0.60;99.90;;;;;;5044329;28;20276;-80
2022/01/29 00:45:31;;;;;;;;;;;1.00;99.90;;;;;;5044080;28;20148;-79
2022/01/29 00:47:56;;;;;;;;;;;0.60;99.90;;;;;;5062450;28;20418;-78
2022/01/29 00:50:22;;;;;;;;;;;0.60;99.90;;;;;;5061733;28;19908;-80
2022/01/29 00:52:47;;;;;;;;;;;0.60;99.90;;;;;;5061383;28;19954;-80
2022/01/29 00:55:13;;;;;;;;;;;0.60;99.90;;;;;;5061454;28;20208;-81
2022/01/29 00:57:40;;;;;;;;;;;0.50;99.90;;;;;;5063525;28;19978;-80
2022/01/29 01:00:10;;;;;;;;;;;0.40;99.90;;;;;;5069774;28;20432;-79
2022/01/29 01:02:35;;;;;;;;;;;0.40;99.90;;;;;;5064385;28;20574;-80
2022/01/29 01:05:01;;;;;;;;;;;0.50;99.90;;;;;;5043420;28;19909;-80
2022/01/29 01:07:27;;;;;;;;;;;0.50;99.90;;;;;;5043923;28;20403;-79
2022/01/29 01:09:52;;;;;;;;;;;0.80;99.90;;;;;;5043578;28;20438;-80
2022/01/29 01:12:18;;;;;;;;;;;0.50;99.90;;;;;;5061599;28;19908;-80
2022/01/29 01:14:45;;;;;;;;;;;0.60;99.90;;;;;;5061211;28;19932;-80
2022/01/29 01:17:10;;;;;;;;;;;0.60;99.90;;;;;;5043589;28;19913;-79
2022/01/29 01:19:36;;;;;;;;;;;0.60;99.90;;;;;;5042816;28;19916;-80
2022/01/29 01:22:02;;;;;;;;;;;0.60;99.90;;;;;;5060615;28;20007;-80
2022/01/29 01:24:27;;;;;;;;;;;0.50;99.90;;;;;;5060159;28;19912;-80
2022/01/29 01:26:53;;;;;;;;;;;0.50;99.90;;;;;;5060632;28;19908;-80
2022/01/29 01:29:19;;;;;;;;;;;0.40;99.90;;;;;;5061753;28;19909;-80
2022/01/29 01:31:45;;;;;;;;;;;0.40;99.90;;;;;;5061290;28;20383;-80
2022/01/29 01:34:15;;;;;;;;;;;0.40;99.90;;;;;;5060979;28;19908;-80
2022/01/29 01:36:50;;;;;;;;;;;0.40;99.90;;;;;;5043176;28;19908;-80
2022/01/29 01:39:19;;;;;;;;;;;0.40;99.90;;;;;;5042594;28;20019;-80
2022/01/29 01:41:54;;;;;;;;;;;0.40;99.90;;;;;;5061068;28;20005;-80
2022/01/29 01:44:20;;;;;;;;;;;0.40;99.90;;;;;;5060487;28;20414;-81
2022/01/29 01:46:46;;;;;;;;;;;0.40;99.90;;;;;;5060777;28;19908;-80
2022/01/29 01:49:11;;;;;;;;;;;0.40;99.90;;;;;;5059643;28;19908;-80
2022/01/29 01:51:37;;;;;;;;;;;0.40;99.90;;;;;;5059451;28;19912;-80
2022/01/29 01:54:03;;;;;;;;;;;0.40;99.90;;;;;;5059448;28;20318;-80
2022/01/29 01:56:28;;;;;;;;;;;0.30;99.90;;;;;;5059752;28;19976;-81
2022/01/29 01:58:57;;;;;;;;;;;0.30;99.90;;;;;;5041621;28;19916;-80
2022/01/29 02:01:23;;;;;;;;;;;2.60;99.90;;;;;;5062414;28;20539;-81
2022/01/29 02:03:48;;;;;;;;;;;-1.60;99.90;;;;;;5060589;28;19909;-81
2022/01/29 02:06:14;;;;;;;;;;;0.40;99.90;;;;;;5059709;28;19976;-79
2022/01/29 02:08:40;;;;;;;;;;;0.40;99.90;;;;;;5060077;28;19909;-80
2022/01/29 02:11:06;;;;;;;;;;;0.80;99.90;;;;;;5041541;28;19966;-80
2022/01/29 02:13:32;;;;;;;;;;;0.40;99.90;;;;;;5059823;28;19917;-80
2022/01/29 02:15:58;;;;;;;;;;;0.40;99.90;;;;;;5059211;28;19920;-80
2022/01/29 02:18:23;;;;;;;;;;;1.30;99.90;;;;;;5059477;28;20637;-79
2022/01/29 02:20:49;;;;;;;;;;;0.40;99.90;;;;;;5059567;28;20434;-80
2022/01/29 02:23:17;;;;;;;;;;;0.40;99.90;;;;;;5059437;28;19951;-80
2022/01/29 02:25:43;;;;;;;;;;;0.40;99.90;;;;;;5058843;28;19919;-80
2022/01/29 02:28:10;;;;;;;;;;;0.30;99.90;;;;;;5058741;28;19912;-80
2022/01/29 02:30:37;;;;;;;;;;;0.40;99.90;;;;;;5058713;28;19920;-80
2022/01/29 02:33:06;;;;;;;;;;;0.40;99.90;;;;;;5049609;28;19916;-80
2022/01/29 02:35:31;;;;;;;;;;;0.40;99.90;;;;;;5069680;28;19908;-79
2022/01/29 02:37:57;;;;;;;;;;;0.40;99.90;;;;;;5064915;28;20278;-80
2022/01/29 02:40:23;;;;;;;;;;;0.50;99.90;;;;;;5041082;28;20025;-80
2022/01/29 02:42:50;;;;;;;;;;;1.00;99.90;;;;;;5042535;28;19916;-80
2022/01/29 02:45:16;;;;;;;;;;;0.50;99.90;;;;;;5040823;28;19919;-80
2022/01/29 02:47:41;;;;;;;;;;;0.50;99.90;;;;;;5058355;28;19909;-80
2022/01/29 02:50:08;;;;;;;;;;;0.50;99.90;;;;;;5058511;28;19909;-80
2022/01/29 02:52:34;;;;;;;;;;;0.50;99.90;;;;;;5041342;28;19992;-79
2022/01/29 02:55:00;;;;;;;;;;;0.60;99.90;;;;;;5058785;28;20007;-79
2022/01/29 02:57:25;;;;;;;;;;;0.60;99.90;;;;;;5040753;28;19920;-80
2022/01/29 02:59:51;;;;;;;;;;;0.60;99.90;;;;;;5058610;28;19912;-80
2022/01/29 03:02:17;;;;;;;;;;;0.70;99.90;;;;;;5041008;28;19908;-80
2022/01/29 03:04:43;;;;;;;;;;;0.70;99.90;;;;;;5058160;28;19961;-80
2022/01/29 03:07:08;;;;;;;;;;;0.70;99.90;;;;;;5058597;28;19920;-79
2022/01/29 03:09:34;;;;;;;;;;;0.70;99.90;;;;;;5039600;28;19931;-81
2022/01/29 03:11:59;;;;;;;;;;;0.70;99.90;;;;;;5058376;28;19920;-79
2022/01/29 03:14:25;;;;;;;;;;;0.80;99.90;;;;;;5057460;28;20589;-80
2022/01/29 03:16:50;;;;;;;;;;;0.80;99.90;;;;;;5057948;28;20002;-80
2022/01/29 03:19:16;;;;;;;;;;;0.80;99.90;;;;;;5062123;28;19983;-80
2022/01/29 03:21:42;;;;;;;;;;;0.80;99.90;;;;;;5062073;28;20011;-80
2022/01/29 03:24:07;;;;;;;;;;;0.80;99.90;;;;;;5066391;28;19916;-80
2022/01/29 03:26:33;;;;;;;;;;;2.20;99.90;;;;;;5063039;28;19908;-80
2022/01/29 03:28:58;;;;;;;;;;;0.70;99.90;;;;;;5062667;28;20313;-79
2022/01/29 03:31:27;;;;;;;;;;;0.70;99.90;;;;;;5061852;28;20007;-80
2022/01/29 03:33:53;;;;;;;;;;;0.90;99.90;;;;;;5062966;28;19915;-80
2022/01/29 03:36:19;;;;;;;;;;;1.00;99.90;;;;;;5064691;28;19963;-80
2022/01/29 03:38:44;;;;;;;;;;;0.60;99.90;;;;;;5068534;28;20769;-80
2022/01/29 03:41:12;;;;;;;;;;;0.60;99.90;;;;;;5062699;28;19908;-79
2022/01/29 03:43:44;;;;;;;;;;;0.50;99.90;;;;;;5062379;28;19923;-80
2022/01/29 03:46:10;;;;;;;;;;;1.60;99.90;;;;;;5062548;28;19908;-80
2022/01/29 03:48:36;;;;;;;;;;;0.40;99.90;;;;;;5062585;28;20441;-80
2022/01/29 03:51:01;;;;;;;;;;;0.50;99.90;;;;;;5063316;28;19909;-79
2022/01/29 03:53:27;;;;;;;;;;;0.90;98.10;;;;;;5043640;28;20167;-80
2022/01/29 03:55:52;;;;;;;;;;;0.50;95.80;;;;;;5062382;28;19908;-80
2022/01/29 03:58:18;;;;;;;;;;;0.50;94.80;;;;;;5061919;28;19973;-80
2022/01/29 04:00:43;;;;;;;;;;;0.50;95.00;;;;;;5061999;28;20374;-80
2022/01/29 04:03:09;;;;;;;;;;;0.60;95.30;;;;;;5061229;28;19973;-80
2022/01/29 04:05:35;;;;;;;;;;;0.60;95.00;;;;;;5042986;28;19912;-80
2022/01/29 04:08:00;;;;;;;;;;;0.60;96.10;;;;;;5060817;28;19970;-80
2022/01/29 04:10:28;;;;;;;;;;;0.60;99.90;;;;;;5042725;28;20353;-80
2022/01/29 04:12:54;;;;;;;;;;;0.50;99.90;;;;;;5069235;28;19912;-80
2022/01/29 04:15:20;;;;;;;;;;;0.50;99.90;;;;;;5051112;28;19936;-80
2022/01/29 04:17:46;;;;;;;;;;;0.40;99.90;;;;;;5069864;28;19913;-80
2022/01/29 04:20:11;;;;;;;;;;;0.40;99.90;;;;;;5063958;28;20345;-80
2022/01/29 04:22:38;;;;;;;;;;;0.40;99.90;;;;;;5062516;28;19918;-79
2022/01/29 04:25:04;;;;;;;;;;;0.30;99.90;;;;;;5061820;28;19913;-81
2022/01/29 04:27:42;;;;;;;;;;;0.20;99.90;;;;;;5062358;28;19999;-80
2022/01/29 04:30:13;;;;;;;;;;;0.30;99.90;;;;;;5060009;28;19909;-80
2022/01/29 04:32:58;;;;;;;;;;;0.30;99.90;;;;;;5067542;28;20303;-80
2022/01/29 04:35:23;;;;;;;;;;;0.30;99.90;;;;;;5050324;28;19919;-80
2022/01/29 04:37:50;;;;;;;;;;;0.30;99.90;;;;;;5069357;28;20300;-80
2022/01/29 04:40:16;;;;;;;;;;;0.30;99.90;;;;;;5068552;28;20185;-80
2022/01/29 04:42:42;;;;;;;;;;;0.30;99.90;;;;;;5060776;28;19913;-80
2022/01/29 04:45:08;;;;;;;;;;;0.20;99.90;;;;;;5042903;28;19995;-80
2022/01/29 04:47:33;;;;;;;;;;;0.20;99.90;;;;;;5060641;28;19908;-80
2022/01/29 04:49:59;;;;;;;;;;;0.20;99.90;;;;;;5060867;28;19960;-80
2022/01/29 04:52:24;;;;;;;;;;;0.10;99.90;;;;;;5043427;28;19908;-80
2022/01/29 04:54:50;;;;;;;;;;;0.50;99.90;;;;;;5068022;28;20079;-80
2022/01/29 04:57:16;;;;;;;;;;;0.10;99.90;;;;;;5065390;28;19917;-79
2022/01/29 04:59:41;;;;;;;;;;;0.00;99.90;;;;;;5060501;28;20574;-80
2022/01/29 05:02:07;;;;;;;;;;;1.80;99.90;;;;;;5060662;28;19929;-80
2022/01/29 05:04:34;;;;;;;;;;;1.10;99.90;;;;;;5059748;28;19915;-80
2022/01/29 05:07:00;;;;;;;;;;;-0.10;99.90;;;;;;5060027;28;19958;-79
2022/01/29 05:09:25;;;;;;;;;;;-0.10;99.90;;;;;;5059935;28;19975;-79
2022/01/29 05:11:53;;;;;;;;;;;-0.10;99.90;;;;;;5059677;28;19909;-80
2022/01/29 05:14:49;;;;;;;;;;;-0.10;99.90;;;;;;5059928;28;20652;-79
2022/01/29 05:27:57;;;;;;;;;;;0.00;99.90;;;;;;5059368;28;20120;-79
2022/01/29 05:30:23;;;;;;;;;;;-0.10;99.90;;;;;;5059859;28;19909;-80
2022/01/29 05:32:49;;;;;;;;;;;-0.10;99.90;;;;;;5058814;28;19948;-79
2022/01/29 05:35:14;;;;;;;;;;;-0.10;99.90;;;;;;5059559;28;19908;-79
2022/01/29 05:37:40;;;;;;;;;;;-0.10;99.90;;;;;;5041160;28;20011;-80
2022/01/29 05:40:06;;;;;;;;;;;1.50;99.90;;;;;;5058744;28;19928;-79
2022/01/29 05:42:31;;;;;;;;;;;-0.10;99.90;;;;;;5059495;28;19970;-79
2022/01/29 05:44:57;;;;;;;;;;;0.80;99.90;;;;;;5060351;28;19916;-79
2022/01/29 05:47:22;;;;;;;;;;;-0.10;99.90;;;;;;5060289;28;19909;-80
2022/01/29 05:49:48;;;;;;;;;;;-0.10;99.90;;;;;;5059322;28;20119;-80
2022/01/29 05:52:13;;;;;;;;;;;-0.10;99.90;;;;;;5059204;28;20033;-80
2022/01/29 05:54:39;;;;;;;;;;;0.00;99.90;;;;;;5059003;28;19955;-80
2022/01/29 05:57:04;;;;;;;;;;;0.00;99.90;;;;;;5060402;28;19912;-80
2022/01/29 05:59:34;;;;;;;;;;;-1.40;99.90;;;;;;5060460;28;19923;-78
2022/01/29 06:02:00;;;;;;;;;;;0.00;99.90;;;;;;5060087;28;20011;-79
2022/01/29 06:04:26;;;;;;;;;;;-0.10;99.90;;;;;;5058783;28;20036;-79
2022/01/29 06:06:51;;;;;;;;;;;1.00;99.90;;;;;;5058749;28;19954;-80
2022/01/29 06:09:17;;;;;;;;;;;0.00;99.90;;;;;;5040723;28;20151;-80
2022/01/29 06:11:42;;;;;;;;;;;0.00;99.90;;;;;;5058378;28;19909;-80
2022/01/29 06:14:09;;;;;;;;;;;-0.10;99.90;;;;;;5040675;28;20007;-80
2022/01/29 06:16:35;;;;;;;;;;;-0.10;99.90;;;;;;5058477;28;20238;-80
2022/01/29 06:19:00;;;;;;;;;;;-0.10;99.90;;;;;;5059919;28;19974;-79
2022/01/29 06:21:28;;;;;;;;;;;-0.10;99.90;;;;;;5041413;28;20205;-80
2022/01/29 06:23:53;;;;;;;;;;;-0.10;99.90;;;;;;5059941;28;20273;-79
2022/01/29 06:26:19;;;;;;;;;;;-0.10;99.90;;;;;;5057933;28;19966;-79
2022/01/29 06:28:45;;;;;;;;;;;-0.10;99.90;;;;;;5058391;28;20007;-79
2022/01/29 06:31:10;;;;;;;;;;;-0.10;99.90;;;;;;5058230;28;19909;-79
2022/01/29 06:33:36;;;;;;;;;;;-0.10;99.90;;;;;;5057986;28;20283;-79
2022/01/29 06:36:02;;;;;;;;;;;-0.10;99.90;;;;;;5057949;28;20183;-79
2022/01/29 06:38:27;;;;;;;;;;;-0.10;99.90;;;;;;5057852;28;19917;-79
2022/01/29 06:40:53;;;;;;;;;;;0.50;99.90;;;;;;5057756;28;19908;-79
2022/01/29 06:43:19;;;;;;;;;;;-0.10;99.90;;;;;;5057739;28;19912;-79
2022/01/29 06:45:45;;;;;;;;;;;-0.10;99.90;;;;;;5058333;28;19999;-79
2022/01/29 06:48:12;;;;;;;;;;;0.00;99.90;;;;;;5058112;28;19909;-79
2022/01/29 06:50:38;;;;;;;;;;;-0.10;99.90;;;;;;5058156;28;19909;-79
2022/01/29 06:53:04;;;;;;;;;;;0.00;99.90;;;;;;5056692;28;20382;-79
2022/01/29 06:55:30;;;;;;;;;;;0.10;99.90;;;;;;5039943;28;20175;-79
2022/01/29 06:57:55;;;;;;;;;;;0.10;99.90;;;;;;5057674;28;19946;-79
2022/01/29 07:00:22;;;;;;;;;;;0.20;99.90;;;;;;5058040;28;20246;-79
2022/01/29 07:02:48;;;;;;;;;;;0.20;99.90;;;;;;5057949;28;20351;-79
2022/01/29 07:05:14;;;;;;;;;;;0.20;99.90;;;;;;5057647;28;20100;-78
2022/01/29 07:07:39;;;;;;;;;;;0.20;99.90;;;;;;5057848;28;19917;-79
2022/01/29 07:10:06;;;;;;;;;;;0.10;99.90;;;;;;5057636;28;20475;-81
2022/01/29 07:12:32;;;;;;;;;;;0.10;99.90;;;;;;5057897;28;19912;-79
2022/01/29 07:14:57;;;;;;;;;;;1.10;99.90;;;;;;5039713;28;19924;-79
2022/01/29 07:17:24;;;;;;;;;;;0.20;99.90;;;;;;5040071;28;19931;-80
2022/01/29 07:19:51;;;;;;;;;;;0.30;99.90;;;;;;5058033;28;20026;-79
2022/01/29 07:22:18;;;;;;;;;;;0.30;99.90;;;;;;5057886;28;19970;-79
2022/01/29 07:24:44;;;;;;;;;;;0.40;99.90;;;;;;5057505;28;20167;-79
2022/01/29 07:27:10;;;;;;;;;;;0.50;99.90;;;;;;5057567;28;19912;-79
2022/01/29 07:29:35;;;;;;;;;;;0.60;99.90;;;;;;5057464;28;20215;-79
2022/01/29 07:32:01;;;;;;;;;;;0.60;99.90;;;;;;5039450;28;20417;-80
2022/01/29 07:34:27;;;;;;;;;;;0.70;99.90;;;;;;5057793;28;19909;-79
2022/01/29 07:36:54;;;;;;;;;;;0.80;99.90;;;;;;5039199;28;20140;-79
2022/01/29 07:39:20;;;;;;;;;;;0.80;99.90;;;;;;5057367;28;19917;-79
2022/01/29 07:41:46;;;;;;;;;;;0.90;99.90;;;;;;5056933;28;19959;-79
2022/01/29 07:44:12;;;;;;;;;;;1.00;99.90;;;;;;5057958;28;20029;-79
2022/01/29 07:46:39;;;;;;;;;;;1.10;99.10;;;;;;5057484;28;19909;-80
2022/01/29 07:49:06;;;;;;;;;;;1.00;99.20;;;;;;5057737;28;20216;-79
2022/01/29 07:51:32;;;;;;;;;;;1.00;97.50;;;;;;5057412;28;20546;-79
2022/01/29 07:53:57;;;;;;;;;;;1.00;95.40;;;;;;5038898;28;19943;-78
2022/01/29 07:56:23;;;;;;;;;;;0.90;94.20;;;;;;5039170;28;19916;-79
2022/01/29 07:58:49;;;;;;;;;;;1.70;95.00;;;;;;5056920;28;20012;-79
2022/01/29 08:01:15;;;;;;;;;;;0.90;94.00;;;;;;5039749;28;19913;-79
2022/01/29 08:03:40;;;;;;;;;;;0.90;94.10;;;;;;5058529;28;20235;-79
2022/01/29 08:06:07;;;;;;;;;;;1.00;94.30;;;;;;5060933;28;20402;-79
2022/01/29 08:08:34;;;;;;;;;;;1.00;94.40;;;;;;5061133;28;20125;-80
2022/01/29 08:11:04;;;;;;;;;;;1.20;94.10;;;;;;5061216;28;19977;-79
2022/01/29 08:13:29;;;;;;;;;;;1.50;94.30;;;;;;5061338;28;19923;-79
2022/01/29 08:15:55;;;;;;;;;;;1.30;94.10;;;;;;5062813;28;19962;-79
2022/01/29 08:18:20;;;;;;;;;;;1.30;93.80;;;;;;5062110;28;19942;-79
2022/01/29 08:20:47;;;;;;;;;;;2.30;93.20;;;;;;5062823;28;20205;-79
2022/01/29 08:23:13;;;;;;;;;;;1.50;93.40;;;;;;5045043;28;19913;-78
2022/01/29 08:25:38;;;;;;;;;;;2.50;93.80;;;;;;5044904;28;20650;-79
2022/01/29 08:28:04;;;;;;;;;;;1.70;93.30;;;;;;5066819;28;20367;-79
2022/01/29 08:30:30;;;;;;;;;;;0.40;92.10;;;;;;5066811;28;19919;-79
2022/01/29 08:32:56;;;;;;;;;;;1.70;92.10;;;;;;5062145;28;19991;-79
2022/01/29 08:35:22;;;;;;;;;;;1.80;92.40;;;;;;5061979;28;19981;-79
2022/01/29 08:37:47;;;;;;;;;;;1.80;92.50;;;;;;5063571;28;19912;-79
2022/01/29 08:40:13;;;;;;;;;;;1.90;91.90;;;;;;5066561;28;19916;-79
2022/01/29 08:42:39;;;;;;;;;;;1.90;92.00;;;;;;5064886;28;20334;-79
2022/01/29 08:45:05;;;;;;;;;;;1.80;93.30;;;;;;5064606;28;20252;-78
2022/01/29 08:47:31;;;;;;;;;;;1.50;94.50;;;;;;5061517;28;19920;-79
2022/01/29 08:49:57;;;;;;;;;;;1.60;95.20;;;;;;5044529;28;19909;-79
2022/01/29 08:52:23;;;;;;;;;;;1.40;95.60;;;;;;5062385;28;19920;-79
2022/01/29 08:54:48;;;;;;;;;;;1.40;95.90;;;;;;5061682;28;19909;-79
2022/01/29 08:57:14;;;;;;;;;;;1.60;96.00;;;;;;5061842;28;19908;-79
2022/01/29 08:59:39;;;;;;;;;;;1.70;96.20;;;;;;5062803;28;19917;-79
2022/01/29 09:02:05;;;;;;;;;;;1.70;95.60;;;;;;5063301;28;19913;-78
2022/01/29 09:04:31;;;;;;;;;;;2.00;95.20;;;;;;5063395;28;19920;-79
2022/01/29 09:06:56;;;;;;;;;;;2.00;94.80;;;;;;5063174;28;20204;-78
2022/01/29 09:09:26;;;;;;;;;;;2.30;94.60;;;;;;5062746;28;19982;-78
2022/01/29 09:11:52;;;;;;;;;;;2.90;94.70;;;;;;5062157;28;20145;-78
2022/01/29 09:14:18;;;;;;;;;;;2.80;94.00;;;;;;5061477;28;19942;-79
2022/01/29 09:16:44;;;;;;;;;;;2.90;93.70;;;;;;5059898;28;20318;-78
2022/01/29 09:19:11;;;;;;;;;;;3.10;92.60;;;;;;5061197;28;19917;-78
2022/01/29 09:21:36;;;;;;;;;;;3.30;91.30;;;;;;5043704;28;19909;-78
2022/01/29 09:24:03;;;;;;;;;;;3.00;91.60;;;;;;5062679;28;20437;-77
2022/01/29 09:26:28;;;;;;;;;;;3.20;92.00;;;;;;5061843;28;19938;-78
2022/01/29 09:28:54;;;;;;;;;;;3.30;92.00;;;;;;5060858;28;20410;-78
2022/01/29 09:31:20;;;;;;;;;;;3.60;91.30;;;;;;5060997;28;19916;-78
2022/01/29 09:33:46;;;;;;;;;;;3.60;91.10;;;;;;5061189;28;19959;-78
2022/01/29 09:36:11;;;;;;;;;;;3.80;91.10;;;;;;5061663;28;19952;-78
2022/01/29 09:38:37;;;;;;;;;;;3.90;91.00;;;;;;5041835;28;19916;-77
2022/01/29 09:41:03;;;;;;;;;;;3.90;90.80;;;;;;5061615;28;20435;-77
2022/01/29 09:43:31;;;;;;;;;;;3.60;91.10;;;;;;5041992;28;19908;-78
2022/01/29 09:45:57;;;;;;;;;;;1.70;90.80;;;;;;5059571;28;20195;-77
2022/01/29 09:48:23;;;;;;;;;;;3.40;91.70;;;;;;5060494;28;19947;-78
2022/01/29 09:50:50;;;;;;;;;;;3.30;92.10;;;;;;5059603;28;19909;-77
2022/01/29 09:53:15;;;;;;;;;;;3.20;92.20;;;;;;5060057;28;19912;-77
2022/01/29 09:55:43;;;;;;;;;;;3.10;91.80;;;;;;5060717;28;19917;-78
2022/01/29 09:58:09;;;;;;;;;;;3.10;92.00;;;;;;5061009;28;20228;-77
2022/01/29 10:00:35;;;;;;;;;;;3.50;91.70;;;;;;5060739;28;20074;-78
2022/01/29 10:03:09;;;;;;;;;;;4.00;90.60;;;;;;5061284;28;19963;-77
2022/01/29 10:05:36;;;;;;;;;;;3.90;89.80;;;;;;5061119;28;20435;-78
2022/01/29 10:08:01;;;;;;;;;;;3.90;90.10;;;;;;5043413;28;20516;-77
2022/01/29 10:10:27;;;;;;;;;;;4.00;89.70;;;;;;5061232;28;20011;-77
2022/01/29 10:12:52;;;;;;;;;;;4.10;90.00;;;;;;5060656;28;20015;-77
2022/01/29 10:15:21;;;;;;;;;;;3.90;89.90;;;;;;5060220;28;19920;-77
2022/01/29 10:17:48;;;;;;;;;;;4.00;88.80;;;;;;5062613;28;19913;-78
2022/01/29 10:20:14;;;;;;;;;;;4.30;88.60;;;;;;5062579;28;19912;-78
2022/01/29 10:22:40;;;;;;;;;;;4.70;86.50;;;;;;5043061;28;20468;-78
2022/01/29 10:25:06;;;;;;;;;;;4.60;84.10;;;;;;5042640;28;20322;-77
2022/01/29 10:27:32;;;;;;;;;;;4.80;84.10;;;;;;5061083;28;19939;-77
2022/01/29 10:29:59;;;;;;;;;;;4.40;83.00;;;;;;5061415;28;19908;-78
2022/01/29 10:32:25;;;;;;;;;;;4.70;82.90;;;;;;5060641;28;19913;-78
2022/01/29 10:34:55;;;;;;;;;;;5.10;81.80;;;;;;5061632;28;19915;-78
2022/01/29 10:37:24;;;;;;;;;;;5.80;77.00;;;;;;5044139;28;20003;-77
2022/01/29 10:39:53;;;;;;;;;;;5.90;77.80;;;;;;5068558;28;19913;-78
2022/01/29 10:42:23;;;;;;;;;;;6.30;75.90;;;;;;5063972;28;19909;-77
2022/01/29 10:44:50;;;;;;;;;;;6.80;76.30;;;;;;5061886;28;20004;-78
2022/01/29 10:47:16;;;;;;;;;;;6.90;72.80;;;;;;5061137;28;19927;-78
2022/01/29 10:49:51;;;;;;;;;;;7.00;70.30;;;;;;5059514;28;20092;-78
2022/01/29 10:52:19;;;;;;;;;;;6.80;68.30;;;;;;5058258;28;20003;-78
2022/01/29 10:54:47;;;;;;;;;;;6.60;68.30;;;;;;5058702;28;20299;-77
2022/01/29 10:57:16;;;;;;;;;;;6.40;67.70;;;;;;5059466;28;19909;-78
2022/01/29 10:59:48;;;;;;;;;;;6.60;69.30;;;;;;5060265;28;19912;-77
2022/01/29 11:02:14;;;;;;;;;;;6.70;69.60;;;;;;5060767;28;19915;-78
2022/01/29 11:04:40;;;;;;;;;;;7.10;67.40;;;;;;5043770;28;19916;-78
2022/01/29 11:07:16;;;;;;;;;;;7.80;64.60;;;;;;5063275;28;20116;-78
2022/01/29 11:09:43;;;;;;;;;;;8.10;61.70;;;;;;5064472;28;19909;-79
2022/01/29 11:12:09;;;;;;;;;;;8.50;59.30;;;;;;5065228;28;19909;-78
2022/01/29 11:14:35;;;;;;;;;;;8.40;55.40;;;;;;5064623;28;20400;-78
2022/01/29 11:17:02;;;;;;;;;;;8.70;52.80;;;;;;5066100;28;19948;-78
2022/01/29 11:19:28;;;;;;;;;;;9.00;53.30;;;;;;5048368;28;19917;-78
2022/01/29 11:21:54;;;;;;;;;;;8.90;49.50;;;;;;5049094;28;19936;-78
2022/01/29 11:24:22;;;;;;;;;;;10.10;51.80;;;;;;5068504;28;20133;-78
2022/01/29 11:26:47;;;;;;;;;;;8.70;51.90;;;;;;5067978;28;19944;-79
2022/01/29 11:29:32;;;;;;;;;;;8.40;52.10;;;;;;5048817;28;20302;-78
2022/01/29 11:32:16;;;;;;;;;;;8.20;52.50;;;;;;5066216;28;19909;-78
2022/01/29 11:34:58;;;;;;;;;;;7.90;51.60;;;;;;5062704;28;19956;-78
2022/01/29 11:37:42;;;;;;;;;;;7.80;51.00;;;;;;5061712;28;19915;-79
2022/01/29 11:40:11;;;;;;;;;;;8.00;53.00;;;;;;5046562;28;19916;-78
2022/01/29 11:42:36;;;;;;;;;;;8.10;52.30;;;;;;5064634;28;19908;-78
2022/01/29 11:45:21;;;;;;;;;;;8.10;52.90;;;;;;5064264;28;19950;-79
2022/01/29 11:47:47;;;;;;;;;;;8.20;51.40;;;;;;5064065;28;20578;-78
2022/01/29 11:50:18;;;;;;;;;;;8.10;50.40;;;;;;5046866;28;19909;-78
2022/01/29 11:52:57;;;;;;;;;;;7.80;50.70;;;;;;5045521;28;19913;-79
2022/01/29 11:55:32;;;;;;;;;;;7.70;51.50;;;;;;5063195;28;20019;-78
2022/01/29 11:58:12;;;;;;;;;;;6.80;54.20;;;;;;5063422;28;20020;-78
2022/01/29 12:00:38;;;;;;;;;;;5.90;59.10;;;;;;5063477;28;20607;-78
2022/01/29 12:03:04;;;;;;;;;;;6.20;59.00;;;;;;5028244;28;19935;-79
2022/01/29 12:05:31;;;;;;;;;;;6.00;60.20;;;;;;5062684;28;20347;-78
2022/01/29 12:08:03;;;;;;;;;;;5.70;60.10;;;;;;5063061;28;19908;-79
2022/01/29 12:10:41;;;;;;;;;;;5.90;58.10;;;;;;5045520;28;19981;-78
2022/01/29 12:13:14;;;;;;;;;;;5.70;62.60;;;;;;5063593;28;19908;-78
2022/01/29 12:15:40;;;;;;;;;;;5.30;54.40;;;;;;5063218;28;19926;-78
2022/01/29 12:18:25;;;;;;;;;;;5.60;57.40;;;;;;5044646;28;19916;-78
2022/01/29 12:20:50;;;;;;;;;;;5.30;59.20;;;;;;5045795;28;19916;-78
2022/01/29 12:23:16;;;;;;;;;;;5.30;51.50;;;;;;5063706;28;19917;-78
2022/01/29 12:25:42;;;;;;;;;;;5.50;54.70;;;;;;5062856;28;19912;-79
2022/01/29 12:28:09;;;;;;;;;;;5.80;53.50;;;;;;5062375;28;20257;-79
2022/01/29 12:30:38;;;;;;;;;;;6.10;56.20;;;;;;5063249;28;19912;-78
2022/01/29 12:33:06;;;;;;;;;;;6.00;49.50;;;;;;5062957;28;19908;-79
2022/01/29 12:35:36;;;;;;;;;;;6.20;53.60;;;;;;5063483;28;19940;-78
2022/01/29 12:38:03;;;;;;;;;;;6.40;52.30;;;;;;5062080;28;19942;-79
2022/01/29 12:40:35;;;;;;;;;;;6.60;51.50;;;;;;5061581;28;19909;-79
2022/01/29 12:43:10;;;;;;;;;;;6.80;54.30;;;;;;5061878;28;19915;-79
2022/01/29 12:45:35;;;;;;;;;;;6.90;54.70;;;;;;5060518;28;20580;-78
2022/01/29 12:48:11;;;;;;;;;;;6.90;55.00;;;;;;5061467;28;19920;-79
2022/01/29 12:50:37;;;;;;;;;;;6.80;55.50;;;;;;5060518;28;19912;-78
2022/01/29 12:53:06;;;;;;;;;;;6.60;55.50;;;;;;5061927;28;20375;-79
2022/01/29 12:55:31;;;;;;;;;;;7.70;56.50;;;;;;5062002;28;19919;-78
2022/01/29 12:57:57;;;;;;;;;;;6.90;53.00;;;;;;5062541;28;19916;-78
2022/01/29 13:00:23;;;;;;;;;;;7.20;53.30;;;;;;5062500;28;20010;-79
2022/01/29 13:02:51;;;;;;;;;;;7.30;52.30;;;;;;5062329;28;19908;-79
2022/01/29 13:05:17;;;;;;;;;;;7.40;49.50;;;;;;5062568;28;20166;-79
2022/01/29 13:07:45;;;;;;;;;;;6.80;50.40;;;;;;5062415;28;20414;-80
2022/01/29 13:10:12;;;;;;;;;;;7.20;52.60;;;;;;5062638;28;19930;-79
2022/01/29 13:12:38;;;;;;;;;;;7.20;48.30;;;;;;5062898;28;19940;-79
2022/01/29 13:15:04;;;;;;;;;;;7.20;50.30;;;;;;5070219;28;19970;-79
2022/01/29 13:17:30;;;;;;;;;;;7.60;51.10;;;;;;5065978;28;20105;-79
2022/01/29 13:19:56;;;;;;;;;;;7.80;51.90;;;;;;5062271;28;20406;-79
2022/01/29 13:22:26;;;;;;;;;;;7.20;50.00;;;;;;5062048;28;19908;-79
2022/01/29 13:24:58;;;;;;;;;;;7.40;49.30;;;;;;5061510;28;19920;-79
2022/01/29 13:27:30;;;;;;;;;;;7.40;48.70;;;;;;5061293;28;20070;-79
2022/01/29 13:30:00;;;;;;;;;;;7.20;49.90;;;;;;5043340;28;20440;-79
2022/01/29 13:32:27;;;;;;;;;;;7.30;49.50;;;;;;5061043;28;19912;-79
2022/01/29 13:34:52;;;;;;;;;;;7.50;47.90;;;;;;5060702;28;19920;-79
2022/01/29 13:37:25;;;;;;;;;;;7.40;49.40;;;;;;5060632;28;19908;-79
2022/01/29 13:39:51;;;;;;;;;;;7.40;51.00;;;;;;5061165;28;19917;-79
2022/01/29 13:42:19;;;;;;;;;;;7.60;49.70;;;;;;5042702;28;19988;-79
2022/01/29 13:45:03;;;;;;;;;;;7.10;48.50;;;;;;5060494;28;19912;-78
2022/01/29 13:47:30;;;;;;;;;;;7.30;50.50;;;;;;5060297;28;20455;-79
2022/01/29 13:49:55;;;;;;;;;;;7.50;49.60;;;;;;5060695;28;20193;-79
2022/01/29 13:52:24;;;;;;;;;;;7.50;48.80;;;;;;5060976;28;19919;-79
2022/01/29 13:54:50;;;;;;;;;;;7.30;48.90;;;;;;5042271;28;19962;-79
2022/01/29 13:57:15;;;;;;;;;;;7.40;51.20;;;;;;5060981;28;19916;-78
2022/01/29 13:59:42;;;;;;;;;;;7.70;51.70;;;;;;5061278;28;20054;-80
2022/01/29 14:02:09;;;;;;;;;;;7.80;49.50;;;;;;5043759;28;19915;-79
2022/01/29 14:04:39;;;;;;;;;;;7.70;48.90;;;;;;5063480;28;19909;-79
2022/01/29 14:07:19;;;;;;;;;;;8.00;49.70;;;;;;5064294;28;20272;-79
2022/01/29 14:09:47;;;;;;;;;;;8.20;48.30;;;;;;5064838;28;19915;-80
2022/01/29 14:12:15;;;;;;;;;;;8.40;47.60;;;;;;5064687;28;19913;-80
2022/01/29 14:14:42;;;;;;;;;;;8.70;48.70;;;;;;5064418;28;19947;-80
2022/01/29 14:17:07;;;;;;;;;;;9.00;48.90;;;;;;5048071;28;20421;-81
2022/01/29 14:19:33;;;;;;;;;;;9.10;47.50;;;;;;5067524;28;20137;-80
2022/01/29 14:21:59;;;;;;;;;;;9.50;47.30;;;;;;5068354;28;19976;-81
2022/01/29 14:24:26;;;;;;;;;;;9.40;46.50;;;;;;5067006;28;19913;-81
2022/01/29 14:26:52;;;;;;;;;;;9.40;45.40;;;;;;5067811;28;19912;-81
2022/01/29 14:29:17;;;;;;;;;;;9.60;46.30;;;;;;5054961;28;19919;-82
2022/01/29 14:31:44;;;;;;;;;;;9.80;46.00;;;;;;5077008;28;19908;-80
2022/01/29 14:34:10;;;;;;;;;;;9.30;44.90;;;;;;5061632;28;19939;-80
2022/01/29 14:36:36;;;;;;;;;;;9.60;46.00;;;;;;5062299;28;19938;-82
2022/01/29 14:39:03;;;;;;;;;;;9.80;44.70;;;;;;5062845;28;19917;-82